Time;durP1;ratioP1;P1;durP2;ratioP2;P2;SDS_P1;SDS_P2;PMS_P1;PMS_P2;Temp;Humidity;BMP_temperature;BMP_pressure;BME280_temperature;BME280_humidity;BME280_pressure;Samples;Min_cycle;Max_cycle;Signal;HPM_P1;HPM_P2
2021/10/18 00:00:42;;;;;;;;;;;;;;;6.90;78.37;101281.90;1841138;78;20186;-62
2021/10/18 00:03:10;;;;;;;;;;;;;;;6.84;78.54;101281.11;1841336;78;20198;-62
2021/10/18 00:05:38;;;;;;;;;;;;;;;6.78;78.70;101279.91;1841286;78;20108;-63
2021/10/18 00:08:06;;;;;;;;;;;;;;;6.78;78.69;101280.77;1841277;78;20127;-62
2021/10/18 00:10:34;;;;;;;;;;;;;;;6.80;78.46;101289.45;1841243;78;20175;-61
2021/10/18 00:13:02;;;;;;;;;;;;;;;6.82;78.31;101287.67;1842494;78;20142;-61
2021/10/18 00:15:29;;;;;;;;;;;;;;;6.83;78.18;101289.42;1866917;76;20125;-61
2021/10/18 00:17:59;;;;;;;;;;;;;;;6.83;78.07;101285.49;1867393;77;20109;-61
2021/10/18 00:20:28;;;;;;;;;;;;;;;6.81;78.03;101285.11;1878850;76;20117;-61
2021/10/18 00:22:55;;;;;;;;;;;;;;;6.78;78.00;101286.00;1879002;76;20132;-61
2021/10/18 00:25:23;;;;;;;;;;;;;;;6.73;78.04;101290.42;1879424;76;20133;-61
2021/10/18 00:27:51;;;;;;;;;;;;;;;6.68;78.28;101289.20;1879230;76;20100;-62
2021/10/18 00:30:18;;;;;;;;;;;;;;;6.66;78.30;101290.09;1879354;76;20121;-61
2021/10/18 00:32:46;;;;;;;;;;;;;;;6.65;78.23;101286.61;1879371;76;20148;-61
2021/10/18 00:35:14;;;;;;;;;;;;;;;6.65;78.29;101277.45;1879731;76;20198;-61
2021/10/18 00:37:42;;;;;;;;;;;;;;;6.63;78.33;101281.84;1879882;76;20117;-61
2021/10/18 00:40:10;;;;;;;;;;;;;;;6.63;78.34;101279.69;1879382;76;20121;-61
2021/10/18 00:42:38;;;;;;;;;;;;;;;6.62;78.24;101282.75;1879202;76;20129;-61
2021/10/18 00:45:07;;;;;;;;;;;;;;;6.61;78.14;101280.16;1879326;76;20121;-62
2021/10/18 00:47:35;;;;;;;;;;;;;;;6.59;77.99;101273.63;1878950;76;20383;-61
2021/10/18 00:50:05;;;;;;;;;;;;;;;6.54;78.14;101274.98;1879273;76;20105;-62
2021/10/18 00:52:32;;;;;;;;;;;;;;;6.47;78.25;101282.48;1879379;76;20387;-62
2021/10/18 00:55:00;;;;;;;;;;;;;;;6.47;78.22;101279.02;1879435;76;20155;-62
2021/10/18 00:57:28;;;;;;;;;;;;;;;6.45;78.26;101276.41;1878343;76;20117;-61
2021/10/18 00:59:56;;;;;;;;;;;;;;;6.46;78.23;101268.15;1879377;76;20125;-62
2021/10/18 01:02:24;;;;;;;;;;;;;;;6.46;78.65;101266.84;1879460;76;20156;-61
2021/10/18 01:04:52;;;;;;;;;;;;;;;6.46;78.62;101272.08;1878983;76;20113;-61
2021/10/18 01:07:20;;;;;;;;;;;;;;;6.45;78.40;101269.02;1879376;76;20117;-62
2021/10/18 01:09:49;;;;;;;;;;;;;;;6.45;78.39;101268.57;1879495;76;20105;-62
2021/10/18 01:12:16;;;;;;;;;;;;;;;6.41;78.43;101266.89;1879508;76;20125;-61
2021/10/18 01:14:44;;;;;;;;;;;;;;;6.38;78.47;101266.92;1870139;76;20168;-61
2021/10/18 01:17:12;;;;;;;;;;;;;;;6.36;78.50;101271.31;1866944;77;20159;-61
2021/10/18 01:19:40;;;;;;;;;;;;;;;6.32;78.85;101272.23;1866917;77;20117;-61
2021/10/18 01:22:08;;;;;;;;;;;;;;;6.26;78.92;101274.94;1866804;77;20126;-61
2021/10/18 01:24:36;;;;;;;;;;;;;;;6.26;78.73;101278.41;1866992;77;20152;-62
2021/10/18 01:27:04;;;;;;;;;;;;;;;6.22;79.02;101274.11;1866902;77;20180;-62
2021/10/18 01:29:33;;;;;;;;;;;;;;;6.16;79.44;101269.83;1866875;77;20106;-61
2021/10/18 01:32:02;;;;;;;;;;;;;;;6.13;79.43;101269.86;1866876;76;20110;-61
2021/10/18 01:34:29;;;;;;;;;;;;;;;6.13;79.42;101268.55;1866802;77;20117;-62
2021/10/18 01:36:58;;;;;;;;;;;;;;;6.13;79.51;101268.55;1866876;77;20149;-62
2021/10/18 01:39:26;;;;;;;;;;;;;;;6.13;79.43;101271.16;1866834;77;20121;-62
2021/10/18 01:41:54;;;;;;;;;;;;;;;6.13;79.43;101272.47;1866921;77;20194;-61
2021/10/18 01:44:22;;;;;;;;;;;;;;;6.12;79.51;101275.98;1866918;77;20138;-62
2021/10/18 01:46:50;;;;;;;;;;;;;;;6.07;79.61;101279.09;1866874;76;20218;-62
2021/10/18 01:49:18;;;;;;;;;;;;;;;6.04;79.67;101277.81;1866747;77;20114;-61
2021/10/18 01:51:45;;;;;;;;;;;;;;;6.03;79.66;101284.36;1866994;77;20125;-62
2021/10/18 01:54:13;;;;;;;;;;;;;;;5.98;79.76;101283.97;1866905;77;20145;-62
2021/10/18 01:56:41;;;;;;;;;;;;;;;5.92;80.15;101281.41;1866907;77;20122;-61
2021/10/18 01:59:09;;;;;;;;;;;;;;;5.86;80.33;101280.14;1867136;77;20110;-62
2021/10/18 02:01:37;;;;;;;;;;;;;;;5.88;80.26;101281.44;1866838;77;20117;-63
2021/10/18 02:04:04;;;;;;;;;;;;;;;5.85;80.41;101285.42;1866900;77;20193;-63
2021/10/18 02:06:32;;;;;;;;;;;;;;;5.83;80.33;101279.31;1866928;77;20152;-62
2021/10/18 02:09:00;;;;;;;;;;;;;;;5.84;80.26;101282.36;1866883;77;20117;-62
2021/10/18 02:11:28;;;;;;;;;;;;;;;5.83;80.15;101284.54;1866893;77;20109;-62
2021/10/18 02:13:55;;;;;;;;;;;;;;;5.84;80.07;101290.20;1868746;76;20121;-62
2021/10/18 02:16:23;;;;;;;;;;;;;;;5.83;80.03;101287.16;1875533;76;20152;-62
2021/10/18 02:18:51;;;;;;;;;;;;;;;5.83;80.07;101286.73;1876294;76;20113;-62
2021/10/18 02:21:20;;;;;;;;;;;;;;;5.79;80.04;101288.52;1875657;76;20399;-62
2021/10/18 02:23:48;;;;;;;;;;;;;;;5.70;80.11;101291.22;1875792;76;20151;-62
2021/10/18 02:26:16;;;;;;;;;;;;;;;5.63;80.26;101285.63;1875824;76;20121;-62
2021/10/18 02:28:44;;;;;;;;;;;;;;;5.63;80.42;101288.23;1875562;76;20180;-62
2021/10/18 02:31:11;;;;;;;;;;;;;;;5.66;80.42;101293.86;1875828;76;20171;-62
2021/10/18 02:33:39;;;;;;;;;;;;;;;5.66;80.63;101286.88;1875644;76;20147;-62
2021/10/18 02:36:07;;;;;;;;;;;;;;;5.67;80.69;101289.94;1876399;76;20146;-61
2021/10/18 02:38:35;;;;;;;;;;;;;;;5.64;80.62;101301.71;1875667;76;20168;-61
2021/10/18 02:41:03;;;;;;;;;;;;;;;5.62;80.51;101302.17;1875694;76;20148;-61
2021/10/18 02:43:30;;;;;;;;;;;;;;;5.57;80.46;101302.64;1875676;76;20137;-61
2021/10/18 02:45:58;;;;;;;;;;;;;;;5.52;80.68;101309.69;1875737;76;20150;-61
2021/10/18 02:48:26;;;;;;;;;;;;;;;5.47;80.81;101311.47;1876305;76;20124;-61
2021/10/18 02:50:54;;;;;;;;;;;;;;;5.41;80.87;101311.94;1875963;76;20144;-61
2021/10/18 02:53:22;;;;;;;;;;;;;;;5.35;81.09;101314.61;1875970;76;20158;-61
2021/10/18 02:55:50;;;;;;;;;;;;;;;5.33;80.96;101309.84;1875925;76;20147;-61
2021/10/18 02:58:17;;;;;;;;;;;;;;;5.35;80.96;101314.61;1875779;76;20121;-61
2021/10/18 03:00:45;;;;;;;;;;;;;;;5.35;81.17;101309.84;1875829;76;20199;-61
2021/10/18 03:03:13;;;;;;;;;;;;;;;5.38;81.25;101319.78;1875653;76;20141;-61
2021/10/18 03:05:41;;;;;;;;;;;;;;;5.37;81.30;101321.13;1875690;76;20105;-62
2021/10/18 03:08:08;;;;;;;;;;;;;;;5.39;81.13;101320.23;1875901;76;20117;-62
2021/10/18 03:10:40;;;;;;;;;;;;;;;5.37;81.06;101319.38;1875497;76;20439;-63
2021/10/18 03:13:08;;;;;;;;;;;;;;;5.40;80.98;101325.89;1875739;76;20109;-63
2021/10/18 03:15:36;;;;;;;;;;;;;;;5.45;81.29;101321.92;1874011;76;20430;-63
2021/10/18 03:18:05;;;;;;;;;;;;;;;5.47;81.43;101323.22;1872840;77;20407;-61
2021/10/18 03:20:33;;;;;;;;;;;;;;;5.48;81.32;101326.23;1872743;77;20101;-61
2021/10/18 03:23:01;;;;;;;;;;;;;;;5.47;81.36;101329.75;1872764;76;20105;-62
2021/10/18 03:25:34;;;;;;;;;;;;;;;5.43;81.42;101329.35;1872885;77;20109;-62
2021/10/18 03:28:00;;;;;;;;;;;;;;;5.39;81.28;101330.67;1872147;76;20117;-62
2021/10/18 03:30:28;;;;;;;;;;;;;;;5.35;81.42;101329.42;1872865;77;20118;-62
2021/10/18 03:32:56;;;;;;;;;;;;;;;5.30;81.68;101341.19;1872826;77;20164;-63
2021/10/18 03:35:24;;;;;;;;;;;;;;;5.29;81.84;101339.44;1872900;77;20117;-64
2021/10/18 03:37:51;;;;;;;;;;;;;;;5.29;81.73;101337.28;1872804;77;20136;-62
2021/10/18 03:40:21;;;;;;;;;;;;;;;5.31;81.71;101342.05;1872795;76;20157;-62
2021/10/18 03:42:49;;;;;;;;;;;;;;;5.30;81.77;101330.75;1872955;77;20148;-61
2021/10/18 03:45:16;;;;;;;;;;;;;;;5.31;81.88;101332.49;1872879;77;20109;-61
2021/10/18 03:47:44;;;;;;;;;;;;;;;5.30;81.92;101338.58;1873027;77;20117;-61
2021/10/18 03:50:12;;;;;;;;;;;;;;;5.31;81.96;101342.94;1872856;77;20125;-61
2021/10/18 03:52:40;;;;;;;;;;;;;;;5.29;82.04;101347.73;1873028;77;20105;-63
2021/10/18 03:55:08;;;;;;;;;;;;;;;5.28;82.04;101339.48;1872937;77;20121;-61
2021/10/18 03:57:36;;;;;;;;;;;;;;;5.25;82.02;101341.66;1873007;77;20207;-61
2021/10/18 04:00:04;;;;;;;;;;;;;;;5.25;82.09;101344.27;1872953;77;20192;-62
2021/10/18 04:02:34;;;;;;;;;;;;;;;5.25;82.10;101345.58;1871832;76;20147;-62
2021/10/18 04:05:02;;;;;;;;;;;;;;;5.28;81.92;101347.31;1872832;77;20192;-62
2021/10/18 04:07:29;;;;;;;;;;;;;;;5.31;82.06;101352.08;1872923;77;20105;-61
2021/10/18 04:09:58;;;;;;;;;;;;;;;5.33;82.01;101355.95;1872859;76;20418;-61
2021/10/18 04:12:26;;;;;;;;;;;;;;;5.32;82.18;101349.88;1872816;77;20160;-61
2021/10/18 04:14:54;;;;;;;;;;;;;;;5.37;82.07;101352.02;1872559;76;20117;-61
2021/10/18 04:17:22;;;;;;;;;;;;;;;5.44;81.91;101350.66;1866861;77;20144;-61
2021/10/18 04:19:51;;;;;;;;;;;;;;;5.53;81.63;101357.11;1866954;76;20158;-61
2021/10/18 04:22:19;;;;;;;;;;;;;;;5.62;81.45;101350.50;1866985;76;20407;-61
2021/10/18 04:24:48;;;;;;;;;;;;;;;5.67;81.36;101361.78;1866936;76;20415;-61
2021/10/18 04:27:16;;;;;;;;;;;;;;;5.73;81.22;101368.25;1866954;76;20199;-62
2021/10/18 04:29:44;;;;;;;;;;;;;;;5.77;81.16;101367.78;1866819;77;20280;-62
2021/10/18 04:32:12;;;;;;;;;;;;;;;5.82;81.08;101379.52;1845695;77;20197;-62
2021/10/18 04:34:39;;;;;;;;;;;;;;;5.86;81.09;101381.22;1881442;76;20115;-62
2021/10/18 04:37:07;;;;;;;;;;;;;;;5.93;81.06;101381.14;1879652;76;20123;-62
2021/10/18 04:39:35;;;;;;;;;;;;;;;6.05;80.88;101388.05;1881370;76;20115;-62
2021/10/18 04:42:03;;;;;;;;;;;;;;;6.12;80.78;101387.11;1879259;76;20118;-62
2021/10/18 04:44:31;;;;;;;;;;;;;;;6.26;80.68;101386.95;1882359;76;20201;-62
2021/10/18 04:46:59;;;;;;;;;;;;;;;6.37;80.43;101390.77;1880696;76;20420;-62
2021/10/18 04:49:27;;;;;;;;;;;;;;;6.48;80.11;101391.50;1879986;76;20145;-63
2021/10/18 04:51:55;;;;;;;;;;;;;;;6.56;79.83;101389.64;1881668;76;20115;-61
2021/10/18 04:54:23;;;;;;;;;;;;;;;6.65;79.66;101393.05;1880040;76;20111;-61
2021/10/18 04:56:51;;;;;;;;;;;;;;;6.75;79.51;101395.95;1880044;76;20120;-62
2021/10/18 04:59:18;;;;;;;;;;;;;;;6.82;79.41;101401.54;1881206;76;20119;-62
2021/10/18 05:01:46;;;;;;;;;;;;;;;6.89;79.35;101401.89;1880579;76;20201;-61
2021/10/18 05:04:14;;;;;;;;;;;;;;;7.01;79.21;101407.42;1879792;76;20114;-62
2021/10/18 05:06:42;;;;;;;;;;;;;;;7.15;79.09;101410.69;1881095;76;20107;-62
2021/10/18 05:09:09;;;;;;;;;;;;;;;7.32;78.91;101411.78;1880481;76;20142;-61
2021/10/18 05:11:37;;;;;;;;;;;;;;;7.48;78.70;101417.64;1880361;76;20103;-62
2021/10/18 05:14:05;;;;;;;;;;;;;;;7.65;78.40;101419.13;1880120;76;20145;-62
2021/10/18 05:16:34;;;;;;;;;;;;;;;7.85;78.08;101422.74;1881241;76;20111;-62
2021/10/18 05:19:02;;;;;;;;;;;;;;;8.07;77.83;101421.47;1881579;76;20119;-62
2021/10/18 05:21:30;;;;;;;;;;;;;;;8.45;77.54;101428.27;1882411;76;20119;-62
2021/10/18 05:23:58;;;;;;;;;;;;;;;8.99;76.84;101418.84;1884046;76;20146;-61
2021/10/18 05:26:26;;;;;;;;;;;;;;;9.71;76.33;101425.98;1876677;76;20146;-61
2021/10/18 05:28:54;;;;;;;;;;;;;;;10.34;75.93;101425.23;1882063;76;20142;-62
2021/10/18 05:31:22;;;;;;;;;;;;;;;10.92;75.55;101431.08;1881182;76;20146;-62
2021/10/18 05:33:50;;;;;;;;;;;;;;;11.52;75.26;101432.75;1884535;76;20115;-62
2021/10/18 05:36:17;;;;;;;;;;;;;;;12.01;74.06;101432.08;1884114;76;20123;-62
2021/10/18 05:38:45;;;;;;;;;;;;;;;12.51;73.57;101434.75;1874021;76;20111;-62
2021/10/18 05:41:13;;;;;;;;;;;;;;;12.86;73.05;101445.80;1878277;76;20107;-60
2021/10/18 05:43:41;;;;;;;;;;;;;;;13.11;70.77;101442.64;1883081;76;20115;-61
2021/10/18 05:46:08;;;;;;;;;;;;;;;13.42;71.04;101448.53;1876932;76;20115;-61
2021/10/18 05:48:36;;;;;;;;;;;;;;;13.89;70.38;101446.61;1880601;76;20166;-61
2021/10/18 05:51:04;;;;;;;;;;;;;;;14.18;69.10;101444.50;1881243;76;20103;-61
2021/10/18 05:53:33;;;;;;;;;;;;;;;14.48;66.49;101450.74;1884164;76;20145;-61
2021/10/18 05:56:00;;;;;;;;;;;;;;;14.69;64.32;101448.09;1873501;76;20150;-61
2021/10/18 05:58:28;;;;;;;;;;;;;;;14.90;64.20;101451.07;1873678;76;20115;-60
2021/10/18 06:00:56;;;;;;;;;;;;;;;15.20;64.01;101454.11;1884133;76;20150;-61
2021/10/18 06:03:24;;;;;;;;;;;;;;;15.55;63.54;101455.55;1881232;76;20115;-60
2021/10/18 06:05:52;;;;;;;;;;;;;;;15.97;63.30;101460.16;1885228;76;20182;-61
2021/10/18 06:08:20;;;;;;;;;;;;;;;16.37;61.50;101458.14;1881939;76;20142;-61
2021/10/18 06:10:48;;;;;;;;;;;;;;;16.83;62.93;101460.20;1883779;76;20119;-60
2021/10/18 06:13:16;;;;;;;;;;;;;;;17.30;62.53;101448.28;1871714;76;20170;-61
2021/10/18 06:15:44;;;;;;;;;;;;;;;17.84;62.25;101453.67;1884264;76;20106;-61
2021/10/18 06:18:13;;;;;;;;;;;;;;;18.31;61.43;101448.67;1884235;76;20120;-61
2021/10/18 06:20:46;;;;;;;;;;;;;;;18.89;60.33;101448.28;1880196;76;20154;-61
2021/10/18 06:23:14;;;;;;;;;;;;;;;19.37;59.57;101451.92;1878074;76;20357;-61
2021/10/18 06:25:42;;;;;;;;;;;;;;;19.62;57.32;101445.36;1884374;76;20115;-61
2021/10/18 06:28:10;;;;;;;;;;;;;;;19.83;55.59;101446.26;1884347;76;20115;-60
2021/10/18 06:30:39;;;;;;;;;;;;;;;19.95;53.18;101452.09;1884245;76;20177;-61
2021/10/18 06:33:07;;;;;;;;;;;;;;;19.87;53.12;101451.77;1883668;76;20154;-60
2021/10/18 06:35:35;;;;;;;;;;;;;;;19.91;53.40;101451.93;1877217;76;20119;-61
2021/10/18 06:38:05;;;;;;;;;;;;;;;20.12;52.45;101454.11;1879342;76;20182;-61
2021/10/18 06:40:33;;;;;;;;;;;;;;;20.38;51.67;101457.66;1880429;76;20145;-61
2021/10/18 06:43:00;;;;;;;;;;;;;;;20.79;50.24;101460.16;1879535;76;20107;-63
2021/10/18 06:45:28;;;;;;;;;;;;;;;21.21;51.86;101454.53;1878290;75;20228;-61
2021/10/18 06:47:56;;;;;;;;;;;;;;;21.64;51.14;101449.20;1880792;76;20162;-61
2021/10/18 06:50:28;;;;;;;;;;;;;;;21.88;49.65;101455.88;1884464;76;20162;-61
2021/10/18 06:52:57;;;;;;;;;;;;;;;22.21;49.58;101452.45;1881537;76;20163;-61
2021/10/18 06:55:27;;;;;;;;;;;;;;;22.87;50.35;101450.45;1876981;76;20123;-60
2021/10/18 06:57:56;;;;;;;;;;;;;;;23.49;50.54;101454.43;1879609;76;20119;-61
2021/10/18 07:00:23;;;;;;;;;;;;;;;24.00;50.61;101451.59;1878820;76;20115;-61
2021/10/18 07:02:51;;;;;;;;;;;;;;;24.44;50.59;101455.00;1877309;76;20110;-61
2021/10/18 07:05:19;;;;;;;;;;;;;;;24.85;50.43;101458.62;1878636;76;20119;-61
2021/10/18 07:07:47;;;;;;;;;;;;;;;25.19;50.30;101451.55;1879281;76;20181;-60
2021/10/18 07:10:15;;;;;;;;;;;;;;;25.33;48.48;101444.97;1877380;76;20410;-60
2021/10/18 07:12:43;;;;;;;;;;;;;;;25.37;48.19;101445.88;1876085;76;20115;-63
2021/10/18 07:15:10;;;;;;;;;;;;;;;25.64;47.35;101451.11;1875038;76;20103;-60
2021/10/18 07:17:38;;;;;;;;;;;;;;;25.81;46.42;101445.50;1880523;75;20151;-60
2021/10/18 07:20:07;;;;;;;;;;;;;;;26.08;46.24;101447.98;1883045;75;20118;-61
2021/10/18 07:22:44;;;;;;;;;;;;;;;26.36;46.33;101441.69;1888829;75;20153;-61
2021/10/18 07:25:13;;;;;;;;;;;;;;;26.70;46.07;101444.38;1886852;75;20115;-61
2021/10/18 07:27:43;;;;;;;;;;;;;;;27.02;45.05;101441.73;1883895;76;20106;-60
2021/10/18 07:30:11;;;;;;;;;;;;;;;27.30;45.38;101446.66;1881794;76;20115;-61
2021/10/18 07:32:42;;;;;;;;;;;;;;;27.62;44.86;101444.77;1881045;76;20111;-61
2021/10/18 07:35:09;;;;;;;;;;;;;;;27.83;43.69;101451.72;1888715;75;20106;-62
2021/10/18 07:37:36;;;;;;;;;;;;;;;27.86;43.37;101443.30;1886078;76;20115;-62
2021/10/18 07:40:05;;;;;;;;;;;;;;;28.18;43.52;101450.00;1880737;76;20131;-61
2021/10/18 07:42:33;;;;;;;;;;;;;;;28.40;42.84;101446.77;1884429;76;20153;-61
2021/10/18 07:45:01;;;;;;;;;;;;;;;28.32;41.79;101453.49;1883835;76;20115;-61
2021/10/18 07:47:29;;;;;;;;;;;;;;;28.44;41.43;101450.87;1881175;76;20119;-61
2021/10/18 07:49:56;;;;;;;;;;;;;;;28.73;41.52;101444.27;1883814;76;20115;-61
2021/10/18 07:52:24;;;;;;;;;;;;;;;28.99;40.91;101440.66;1881664;76;20119;-61
2021/10/18 07:55:00;;;;;;;;;;;;;;;29.25;40.83;101441.95;1884802;76;20143;-61
2021/10/18 07:57:21;;;;;;;;;;;;;;;29.49;40.06;101445.22;1882138;75;20118;-61
2021/10/18 07:59:49;;;;;;;;;;;;;;;29.60;39.77;101440.84;1883715;76;20141;-61
2021/10/18 08:02:17;;;;;;;;;;;;;;;29.71;39.58;101440.16;1882331;76;20169;-62
2021/10/18 08:04:45;;;;;;;;;;;;;;;29.86;37.92;101438.48;1883867;76;20115;-61
2021/10/18 08:07:12;;;;;;;;;;;;;;;29.96;39.03;101441.05;1883921;76;20107;-61
2021/10/18 08:09:40;;;;;;;;;;;;;;;30.08;38.71;101446.97;1881523;76;20150;-61
2021/10/18 08:12:08;;;;;;;;;;;;;;;30.19;38.64;101442.05;1884887;76;20122;-61
2021/10/18 08:14:36;;;;;;;;;;;;;;;30.18;38.27;101442.22;1882622;76;20113;-61
2021/10/18 08:17:06;;;;;;;;;;;;;;;30.11;37.05;101446.64;1882386;76;20119;-61
2021/10/18 08:19:33;;;;;;;;;;;;;;;30.16;37.02;101440.19;1879888;75;20111;-61
2021/10/18 08:22:01;;;;;;;;;;;;;;;30.35;37.12;101443.06;1880641;76;20107;-61
2021/10/18 08:24:29;;;;;;;;;;;;;;;30.58;36.63;101445.88;1882209;76;20123;-62
2021/10/18 08:26:57;;;;;;;;;;;;;;;30.75;35.83;101443.45;1880566;76;20166;-61
2021/10/18 08:29:25;;;;;;;;;;;;;;;30.90;35.33;101441.36;1879724;76;20397;-61
2021/10/18 08:31:52;;;;;;;;;;;;;;;31.01;35.35;101445.59;1879927;76;20146;-61
2021/10/18 08:34:20;;;;;;;;;;;;;;;31.07;35.88;101442.99;1881693;76;20119;-61
2021/10/18 08:36:48;;;;;;;;;;;;;;;31.08;34.85;101439.27;1880544;76;20119;-61
2021/10/18 08:41:53;;;;;;;;;;;;;;;31.25;34.99;101444.09;1881291;76;20147;-61
2021/10/18 08:44:17;;;;;;;;;;;;;;;31.32;35.07;101445.59;1879727;75;20115;-61
2021/10/18 08:46:47;;;;;;;;;;;;;;;31.32;34.91;101438.80;1879939;76;20153;-61
2021/10/18 08:49:16;;;;;;;;;;;;;;;31.50;34.46;101429.86;1881204;76;20118;-61
2021/10/18 08:51:44;;;;;;;;;;;;;;;31.67;34.09;101433.30;1881079;76;20123;-61
2021/10/18 08:54:12;;;;;;;;;;;;;;;31.82;33.62;101434.70;1880258;76;20115;-61
2021/10/18 08:56:40;;;;;;;;;;;;;;;31.89;33.65;101429.34;1880897;76;20149;-61
2021/10/18 08:59:07;;;;;;;;;;;;;;;31.82;33.26;101427.89;1881253;76;20146;-61
2021/10/18 09:01:46;;;;;;;;;;;;;;;31.86;33.18;101430.58;1880234;76;20119;-61
2021/10/18 09:04:25;;;;;;;;;;;;;;;31.82;32.40;101423.81;1880014;76;20141;-61
2021/10/18 09:06:50;;;;;;;;;;;;;;;31.45;32.52;101429.52;1881171;76;20120;-61
2021/10/18 09:09:23;;;;;;;;;;;;;;;31.56;32.51;101420.12;1881253;76;20206;-61
2021/10/18 09:11:48;;;;;;;;;;;;;;;31.54;32.18;101423.02;1881313;75;20158;-61
2021/10/18 09:14:15;;;;;;;;;;;;;;;31.33;31.55;101420.90;1880072;76;20115;-61
2021/10/18 09:16:47;;;;;;;;;;;;;;;31.38;31.94;101420.37;1880725;76;20123;-61
2021/10/18 09:19:16;;;;;;;;;;;;;;;31.45;31.94;101425.43;1878866;76;20111;-61
2021/10/18 09:21:48;;;;;;;;;;;;;;;31.52;32.07;101420.13;1876378;75;20119;-62
2021/10/18 09:24:18;;;;;;;;;;;;;;;31.61;32.20;101425.00;1877154;76;20377;-62
2021/10/18 09:26:45;;;;;;;;;;;;;;;31.64;32.51;101421.92;1877235;76;20153;-62
2021/10/18 09:29:14;;;;;;;;;;;;;;;31.74;32.60;101421.14;1877113;76;20103;-62
2021/10/18 09:31:44;;;;;;;;;;;;;;;31.59;32.18;101414.29;1877069;76;20397;-62
2021/10/18 09:34:14;;;;;;;;;;;;;;;31.75;32.24;101416.87;1877087;76;20115;-63
2021/10/18 09:36:43;;;;;;;;;;;;;;;31.84;31.90;101417.66;1877126;76;20115;-60
2021/10/18 09:39:16;;;;;;;;;;;;;;;31.85;31.28;101417.14;1877210;76;20443;-60
2021/10/18 09:41:44;;;;;;;;;;;;;;;31.70;31.04;101417.09;1877156;76;20119;-59
2021/10/18 09:44:23;;;;;;;;;;;;;;;31.65;31.67;101412.70;1877129;76;20099;-60
2021/10/18 09:46:50;;;;;;;;;;;;;;;31.68;31.47;101417.28;1876221;76;20154;-62
2021/10/18 10:53:45;;;;;;;;;;;;;;;28.35;32.45;101385.96;1877036;76;20123;-59
2021/10/18 10:56:20;;;;;;;;;;;;;;;28.32;32.53;101379.02;1872100;75;20103;-59
2021/10/18 10:58:50;;;;;;;;;;;;;;;27.89;32.46;101387.52;1877061;76;20150;-60
2021/10/18 11:01:35;;;;;;;;;;;;;;;27.94;32.91;101382.49;1877098;76;20652;-60
2021/10/18 11:04:04;;;;;;;;;;;;;;;27.66;32.64;101378.53;1877050;76;20205;-59
2021/10/18 11:06:34;;;;;;;;;;;;;;;27.53;33.05;101378.09;1876565;76;20167;-60
2021/10/18 11:09:02;;;;;;;;;;;;;;;27.25;33.41;101378.64;1875989;76;20103;-59
2021/10/18 11:11:31;;;;;;;;;;;;;;;26.91;33.98;101378.80;1877085;76;20123;-60
2021/10/18 11:14:00;;;;;;;;;;;;;;;26.82;34.19;101378.35;1876747;76;20158;-59
2021/10/18 11:16:31;;;;;;;;;;;;;;;26.53;34.41;101376.60;1877028;76;20103;-60
2021/10/18 11:19:00;;;;;;;;;;;;;;;26.40;34.60;101384.19;1877717;76;20145;-59
2021/10/18 11:21:35;;;;;;;;;;;;;;;26.37;34.24;101381.30;1879516;76;20182;-59
2021/10/18 11:24:09;;;;;;;;;;;;;;;26.15;34.81;101385.20;1880153;76;20115;-60
2021/10/18 11:26:38;;;;;;;;;;;;;;;25.69;35.44;101386.78;1879891;75;20144;-60
2021/10/18 11:29:08;;;;;;;;;;;;;;;25.31;35.91;101383.61;1881368;76;20503;-61
2021/10/18 11:31:37;;;;;;;;;;;;;;;25.45;35.98;101382.33;1883561;76;20107;-61
2021/10/18 11:34:09;;;;;;;;;;;;;;;25.49;35.70;101389.13;1882999;76;20106;-61
2021/10/18 11:36:41;;;;;;;;;;;;;;;25.41;35.65;101390.69;1882643;76;20107;-61
2021/10/18 11:39:13;;;;;;;;;;;;;;;25.09;36.05;101384.69;1881970;76;20111;-62
2021/10/18 11:41:58;;;;;;;;;;;;;;;24.69;36.71;101394.98;1881575;76;20162;-61
2021/10/18 11:44:38;;;;;;;;;;;;;;;24.33;37.12;101402.56;1836505;78;20172;-61
2021/10/18 11:47:06;;;;;;;;;;;;;;;23.92;37.36;101396.23;1871985;75;20385;-60
2021/10/18 11:49:34;;;;;;;;;;;;;;;23.53;37.09;101399.44;1878270;76;20107;-61
2021/10/18 11:52:03;;;;;;;;;;;;;;;23.13;37.49;101399.57;1881365;76;20111;-61
2021/10/18 11:54:31;;;;;;;;;;;;;;;22.80;38.08;101399.60;1883581;76;20161;-60
2021/10/18 11:56:59;;;;;;;;;;;;;;;22.55;38.52;101400.20;1852536;77;20117;-60
2021/10/18 11:59:27;;;;;;;;;;;;;;;22.30;38.63;101407.51;1849743;77;20117;-61
2021/10/18 12:01:55;;;;;;;;;;;;;;;22.14;39.11;101401.59;1849357;77;20117;-61
2021/10/18 12:04:22;;;;;;;;;;;;;;;22.06;38.97;101402.66;1850006;77;20113;-60
2021/10/18 12:06:50;;;;;;;;;;;;;;;21.93;39.68;101406.30;1881930;76;20188;-61
2021/10/18 12:09:27;;;;;;;;;;;;;;;21.78;39.23;101411.47;1851376;77;20268;-60
2021/10/18 12:11:55;;;;;;;;;;;;;;;21.55;39.85;101412.73;1851664;77;20121;-60
2021/10/18 12:14:23;;;;;;;;;;;;;;;21.41;40.29;101416.87;1931970;74;20139;-60
2021/10/18 12:16:52;;;;;;;;;;;;;;;21.33;40.26;101416.11;1932077;74;20113;-61
2021/10/18 12:19:20;;;;;;;;;;;;;;;21.23;40.32;101423.13;1932094;74;20105;-61
2021/10/18 12:21:50;;;;;;;;;;;;;;;21.11;40.63;101417.33;1929484;74;20105;-60
2021/10/18 12:24:18;;;;;;;;;;;;;;;21.02;40.96;101421.52;1929755;74;20125;-61
2021/10/18 12:26:47;;;;;;;;;;;;;;;20.91;41.07;101432.15;1929617;74;20114;-60
2021/10/18 12:29:16;;;;;;;;;;;;;;;20.78;41.34;101427.66;1929555;74;20113;-61
2021/10/18 12:31:45;;;;;;;;;;;;;;;20.66;41.09;101428.55;1928502;74;20208;-61
2021/10/18 12:34:23;;;;;;;;;;;;;;;20.51;41.27;101429.58;1929630;74;20407;-61
2021/10/18 12:37:07;;;;;;;;;;;;;;;20.36;41.56;101439.53;1929648;74;20113;-60
2021/10/18 12:39:40;;;;;;;;;;;;;;;20.28;41.73;101433.38;1929568;74;20395;-60
2021/10/18 12:42:12;;;;;;;;;;;;;;;20.10;42.00;101433.31;1929566;74;20114;-61
2021/10/18 12:44:41;;;;;;;;;;;;;;;20.03;42.18;101443.58;1929603;74;20156;-60
2021/10/18 12:47:14;;;;;;;;;;;;;;;19.99;42.35;101437.59;1929592;74;20388;-61
2021/10/18 12:49:42;;;;;;;;;;;;;;;19.92;42.56;101446.98;1929556;74;20383;-61
2021/10/18 12:52:10;;;;;;;;;;;;;;;19.89;42.87;101446.33;1929574;74;20121;-61
2021/10/18 12:54:39;;;;;;;;;;;;;;;19.78;42.85;101455.05;1929500;74;20218;-60
2021/10/18 12:57:08;;;;;;;;;;;;;;;19.66;43.04;101452.20;1929559;74;20117;-61
2021/10/18 12:59:38;;;;;;;;;;;;;;;19.63;43.34;101451.55;1929532;74;20367;-61
2021/10/18 13:02:16;;;;;;;;;;;;;;;19.53;43.51;101461.99;1925855;74;20139;-60
2021/10/18 13:04:45;;;;;;;;;;;;;;;19.37;43.82;101461.27;1908633;74;20139;-61
2021/10/18 13:07:13;;;;;;;;;;;;;;;19.18;44.32;101465.13;1921309;74;20105;-60
2021/10/18 13:09:41;;;;;;;;;;;;;;;19.01;44.55;101461.31;1929710;74;20139;-60
2021/10/18 13:12:09;;;;;;;;;;;;;;;18.89;44.83;101466.48;1929601;74;20152;-60
2021/10/18 13:14:37;;;;;;;;;;;;;;;18.86;44.90;101463.98;1929549;74;20109;-61
2021/10/18 13:17:05;;;;;;;;;;;;;;;18.80;45.06;101467.02;1929537;74;20188;-60
2021/10/18 13:19:33;;;;;;;;;;;;;;;18.70;45.31;101469.86;1929484;74;20230;-60
2021/10/18 13:22:03;;;;;;;;;;;;;;;18.59;45.59;101475.88;1931856;74;20117;-61
2021/10/18 13:24:50;;;;;;;;;;;;;;;18.57;45.82;101475.57;1877568;76;20418;-61
2021/10/18 13:27:18;;;;;;;;;;;;;;;18.51;45.99;101472.80;1878409;76;20178;-61
2021/10/18 13:29:46;;;;;;;;;;;;;;;18.47;46.20;101474.80;1878435;76;20168;-61
2021/10/18 13:32:14;;;;;;;;;;;;;;;18.42;46.42;101467.55;1878516;76;20486;-60
2021/10/18 13:34:43;;;;;;;;;;;;;;;18.33;46.49;101469.44;1878460;76;20442;-60
2021/10/18 13:37:12;;;;;;;;;;;;;;;18.23;46.64;101473.63;1878489;76;20144;-61
2021/10/18 13:39:40;;;;;;;;;;;;;;;18.16;46.86;101479.78;1878583;76;20207;-61
2021/10/18 13:42:09;;;;;;;;;;;;;;;18.09;47.10;101477.97;1878460;76;20144;-61
2021/10/18 13:44:37;;;;;;;;;;;;;;;18.00;47.41;101479.84;1878369;76;20218;-61
2021/10/18 13:47:05;;;;;;;;;;;;;;;17.94;47.47;101476.18;1878535;76;20232;-61
2021/10/18 13:49:33;;;;;;;;;;;;;;;17.96;47.44;101480.95;1878505;76;20168;-61
2021/10/18 13:52:00;;;;;;;;;;;;;;;17.88;47.78;101481.88;1878464;76;20127;-61
2021/10/18 13:54:28;;;;;;;;;;;;;;;17.86;47.94;101483.77;1878453;76;20185;-61